sensor_id;sensor_type;location;lat;lon;timestamp;P1;durP1;ratioP1;P2;durP2;ratioP2
70663;SDS011;58237;57.996;56.290;2022-12-07T00:01:42;4.07;;;1.48;;
70663;SDS011;58237;57.996;56.290;2022-12-07T00:04:09;6.80;;;2.63;;
70663;SDS011;58237;57.996;56.290;2022-12-07T00:06:36;4.25;;;1.80;;
70663;SDS011;58237;57.996;56.290;2022-12-07T00:09:02;5.20;;;1.98;;
70663;SDS011;58237;57.996;56.290;2022-12-07T00:11:28;4.93;;;1.40;;
70663;SDS011;58237;57.996;56.290;2022-12-07T00:13:54;4.97;;;1.60;;
70663;SDS011;58237;57.996;56.290;2022-12-07T00:16:20;5.47;;;1.83;;
70663;SDS011;58237;57.996;56.290;2022-12-07T00:18:45;6.40;;;1.85;;
70663;SDS011;58237;57.996;56.290;2022-12-07T00:21:12;3.38;;;1.42;;
70663;SDS011;58237;57.996;56.290;2022-12-07T00:23:38;4.18;;;1.83;;
70663;SDS011;58237;57.996;56.290;2022-12-07T00:26:04;6.60;;;1.65;;
70663;SDS011;58237;57.996;56.290;2022-12-07T00:28:30;4.30;;;1.40;;
70663;SDS011;58237;57.996;56.290;2022-12-07T00:31:02;4.38;;;2.08;;
70663;SDS011;58237;57.996;56.290;2022-12-07T00:33:28;9.43;;;2.77;;
70663;SDS011;58237;57.996;56.290;2022-12-07T00:35:57;3.22;;;1.63;;
70663;SDS011;58237;57.996;56.290;2022-12-07T00:38:22;6.70;;;2.38;;
70663;SDS011;58237;57.996;56.290;2022-12-07T00:40:55;7.53;;;3.45;;
70663;SDS011;58237;57.996;56.290;2022-12-07T00:43:20;4.60;;;1.43;;
70663;SDS011;58237;57.996;56.290;2022-12-07T00:45:45;4.18;;;2.53;;
70663;SDS011;58237;57.996;56.290;2022-12-07T00:48:11;6.93;;;2.40;;
70663;SDS011;58237;57.996;56.290;2022-12-07T00:50:36;6.38;;;2.15;;
70663;SDS011;58237;57.996;56.290;2022-12-07T00:53:01;7.35;;;1.75;;
70663;SDS011;58237;57.996;56.290;2022-12-07T00:55:27;6.65;;;1.83;;
70663;SDS011;58237;57.996;56.290;2022-12-07T00:57:52;4.75;;;1.63;;
70663;SDS011;58237;57.996;56.290;2022-12-07T01:00:18;6.40;;;2.50;;
70663;SDS011;58237;57.996;56.290;2022-12-07T01:02:43;4.68;;;1.50;;
70663;SDS011;58237;57.996;56.290;2022-12-07T01:05:08;2.58;;;1.33;;
70663;SDS011;58237;57.996;56.290;2022-12-07T01:07:34;7.32;;;2.35;;
70663;SDS011;58237;57.996;56.290;2022-12-07T01:09:59;1.88;;;1.00;;
70663;SDS011;58237;57.996;56.290;2022-12-07T01:12:24;4.80;;;2.15;;
70663;SDS011;58237;57.996;56.290;2022-12-07T01:14:50;3.55;;;1.52;;
70663;SDS011;58237;57.996;56.290;2022-12-07T01:17:15;3.97;;;1.75;;
70663;SDS011;58237;57.996;56.290;2022-12-07T01:19:40;5.25;;;1.90;;
70663;SDS011;58237;57.996;56.290;2022-12-07T01:22:06;11.60;;;2.55;;
70663;SDS011;58237;57.996;56.290;2022-12-07T01:24:31;4.85;;;2.63;;
70663;SDS011;58237;57.996;56.290;2022-12-07T01:26:57;6.30;;;2.00;;
70663;SDS011;58237;57.996;56.290;2022-12-07T01:29:22;4.70;;;2.15;;
70663;SDS011;58237;57.996;56.290;2022-12-07T01:31:48;5.57;;;1.92;;
70663;SDS011;58237;57.996;56.290;2022-12-07T01:34:13;3.53;;;1.42;;
70663;SDS011;58237;57.996;56.290;2022-12-07T01:36:39;8.80;;;2.67;;
70663;SDS011;58237;57.996;56.290;2022-12-07T01:39:05;6.97;;;2.17;;
70663;SDS011;58237;57.996;56.290;2022-12-07T01:41:32;3.92;;;1.52;;
70663;SDS011;58237;57.996;56.290;2022-12-07T01:44:07;3.45;;;1.58;;
70663;SDS011;58237;57.996;56.290;2022-12-07T01:46:32;3.38;;;1.55;;
70663;SDS011;58237;57.996;56.290;2022-12-07T01:48:58;2.92;;;1.23;;
70663;SDS011;58237;57.996;56.290;2022-12-07T01:51:23;7.18;;;2.47;;
70663;SDS011;58237;57.996;56.290;2022-12-07T01:53:49;5.47;;;1.98;;
70663;SDS011;58237;57.996;56.290;2022-12-07T01:56:16;8.02;;;2.47;;
70663;SDS011;58237;57.996;56.290;2022-12-07T01:58:43;6.35;;;1.85;;
70663;SDS011;58237;57.996;56.290;2022-12-07T02:01:09;5.65;;;1.90;;
70663;SDS011;58237;57.996;56.290;2022-12-07T02:03:39;5.45;;;2.63;;
70663;SDS011;58237;57.996;56.290;2022-12-07T02:06:05;2.83;;;1.30;;
70663;SDS011;58237;57.996;56.290;2022-12-07T02:08:32;3.78;;;1.40;;
70663;SDS011;58237;57.996;56.290;2022-12-07T02:10:57;5.55;;;2.05;;
70663;SDS011;58237;57.996;56.290;2022-12-07T02:13:23;5.88;;;2.50;;
70663;SDS011;58237;57.996;56.290;2022-12-07T02:26:38;3.28;;;1.95;;
70663;SDS011;58237;57.996;56.290;2022-12-07T02:29:29;3.03;;;1.27;;
70663;SDS011;58237;57.996;56.290;2022-12-07T02:37:26;3.63;;;1.40;;
70663;SDS011;58237;57.996;56.290;2022-12-07T02:40:04;6.07;;;2.70;;
70663;SDS011;58237;57.996;56.290;2022-12-07T02:42:36;2.65;;;1.25;;
70663;SDS011;58237;57.996;56.290;2022-12-07T02:45:03;12.02;;;1.85;;
70663;SDS011;58237;57.996;56.290;2022-12-07T02:47:30;2.92;;;1.42;;
70663;SDS011;58237;57.996;56.290;2022-12-07T02:49:57;3.22;;;1.38;;
70663;SDS011;58237;57.996;56.290;2022-12-07T02:52:22;5.00;;;1.67;;
70663;SDS011;58237;57.996;56.290;2022-12-07T02:54:47;5.97;;;1.63;;
70663;SDS011;58237;57.996;56.290;2022-12-07T02:57:26;6.38;;;1.92;;
70663;SDS011;58237;57.996;56.290;2022-12-07T03:02:27;3.72;;;1.63;;
70663;SDS011;58237;57.996;56.290;2022-12-07T03:12:25;5.47;;;1.73;;
70663;SDS011;58237;57.996;56.290;2022-12-07T03:14:59;2.45;;;1.30;;
70663;SDS011;58237;57.996;56.290;2022-12-07T03:17:26;6.50;;;2.03;;
70663;SDS011;58237;57.996;56.290;2022-12-07T03:19:55;6.15;;;2.55;;
70663;SDS011;58237;57.996;56.290;2022-12-07T03:22:22;6.63;;;2.53;;
70663;SDS011;58237;57.996;56.290;2022-12-07T03:24:52;4.47;;;1.50;;
70663;SDS011;58237;57.996;56.290;2022-12-07T03:27:33;2.33;;;1.02;;
70663;SDS011;58237;57.996;56.290;2022-12-07T03:30:03;6.25;;;2.20;;
70663;SDS011;58237;57.996;56.290;2022-12-07T03:37:41;5.18;;;2.67;;
70663;SDS011;58237;57.996;56.290;2022-12-07T03:42:35;3.55;;;1.35;;
70663;SDS011;58237;57.996;56.290;2022-12-07T03:45:01;8.70;;;2.72;;
70663;SDS011;58237;57.996;56.290;2022-12-07T03:47:30;5.18;;;1.35;;
70663;SDS011;58237;57.996;56.290;2022-12-07T03:49:58;4.72;;;1.65;;
70663;SDS011;58237;57.996;56.290;2022-12-07T03:52:33;9.13;;;3.00;;
70663;SDS011;58237;57.996;56.290;2022-12-07T03:57:38;6.72;;;2.88;;
70663;SDS011;58237;57.996;56.290;2022-12-07T04:00:05;4.78;;;1.48;;
70663;SDS011;58237;57.996;56.290;2022-12-07T04:02:31;3.58;;;1.30;;
70663;SDS011;58237;57.996;56.290;2022-12-07T04:04:57;7.03;;;2.92;;
70663;SDS011;58237;57.996;56.290;2022-12-07T04:07:22;7.22;;;2.83;;
70663;SDS011;58237;57.996;56.290;2022-12-07T04:09:47;4.22;;;2.10;;
70663;SDS011;58237;57.996;56.290;2022-12-07T04:12:13;2.55;;;0.77;;
70663;SDS011;58237;57.996;56.290;2022-12-07T04:14:38;6.78;;;2.33;;
70663;SDS011;58237;57.996;56.290;2022-12-07T04:17:04;6.65;;;2.38;;
70663;SDS011;58237;57.996;56.290;2022-12-07T04:19:30;4.00;;;1.88;;
70663;SDS011;58237;57.996;56.290;2022-12-07T04:21:56;4.18;;;1.77;;
70663;SDS011;58237;57.996;56.290;2022-12-07T04:24:22;3.15;;;2.00;;
70663;SDS011;58237;57.996;56.290;2022-12-07T04:26:47;3.05;;;1.15;;
70663;SDS011;58237;57.996;56.290;2022-12-07T04:29:13;4.03;;;1.10;;
70663;SDS011;58237;57.996;56.290;2022-12-07T04:31:39;5.07;;;2.15;;
70663;SDS011;58237;57.996;56.290;2022-12-07T04:34:04;6.10;;;2.38;;
70663;SDS011;58237;57.996;56.290;2022-12-07T04:36:30;4.55;;;2.13;;
70663;SDS011;58237;57.996;56.290;2022-12-07T04:38:56;4.80;;;2.10;;
70663;SDS011;58237;57.996;56.290;2022-12-07T04:41:22;8.00;;;2.17;;
70663;SDS011;58237;57.996;56.290;2022-12-07T04:43:48;7.90;;;2.03;;
70663;SDS011;58237;57.996;56.290;2022-12-07T04:46:13;8.10;;;1.98;;
70663;SDS011;58237;57.996;56.290;2022-12-07T04:48:38;6.68;;;2.33;;
70663;SDS011;58237;57.996;56.290;2022-12-07T04:51:04;13.05;;;3.83;;
70663;SDS011;58237;57.996;56.290;2022-12-07T04:53:29;6.22;;;2.35;;
70663;SDS011;58237;57.996;56.290;2022-12-07T04:55:55;7.80;;;2.65;;
70663;SDS011;58237;57.996;56.290;2022-12-07T04:58:20;5.38;;;2.13;;
70663;SDS011;58237;57.996;56.290;2022-12-07T05:00:45;3.80;;;1.85;;
70663;SDS011;58237;57.996;56.290;2022-12-07T05:03:11;4.72;;;2.00;;
70663;SDS011;58237;57.996;56.290;2022-12-07T05:05:36;6.22;;;2.88;;
70663;SDS011;58237;57.996;56.290;2022-12-07T05:08:04;8.23;;;3.47;;
70663;SDS011;58237;57.996;56.290;2022-12-07T05:10:30;6.03;;;2.72;;
70663;SDS011;58237;57.996;56.290;2022-12-07T05:12:55;9.45;;;3.25;;
70663;SDS011;58237;57.996;56.290;2022-12-07T05:15:20;2.60;;;1.35;;
70663;SDS011;58237;57.996;56.290;2022-12-07T05:17:46;6.43;;;1.67;;
70663;SDS011;58237;57.996;56.290;2022-12-07T05:20:11;7.78;;;1.85;;
70663;SDS011;58237;57.996;56.290;2022-12-07T05:22:37;8.18;;;3.33;;
70663;SDS011;58237;57.996;56.290;2022-12-07T05:25:02;5.35;;;1.75;;
70663;SDS011;58237;57.996;56.290;2022-12-07T05:27:29;9.18;;;2.80;;
70663;SDS011;58237;57.996;56.290;2022-12-07T05:29:54;3.70;;;1.65;;
70663;SDS011;58237;57.996;56.290;2022-12-07T05:32:19;7.78;;;2.90;;
70663;SDS011;58237;57.996;56.290;2022-12-07T05:34:45;5.10;;;2.17;;
70663;SDS011;58237;57.996;56.290;2022-12-07T05:37:10;4.70;;;2.00;;
70663;SDS011;58237;57.996;56.290;2022-12-07T05:39:35;10.77;;;3.67;;
70663;SDS011;58237;57.996;56.290;2022-12-07T05:42:01;10.30;;;3.25;;
70663;SDS011;58237;57.996;56.290;2022-12-07T05:44:26;4.70;;;2.10;;
70663;SDS011;58237;57.996;56.290;2022-12-07T05:46:52;6.13;;;3.00;;
70663;SDS011;58237;57.996;56.290;2022-12-07T05:49:17;4.63;;;1.55;;
70663;SDS011;58237;57.996;56.290;2022-12-07T05:51:42;9.02;;;2.90;;
70663;SDS011;58237;57.996;56.290;2022-12-07T05:54:08;7.25;;;3.03;;
70663;SDS011;58237;57.996;56.290;2022-12-07T05:56:33;12.15;;;2.92;;
70663;SDS011;58237;57.996;56.290;2022-12-07T05:58:59;13.07;;;4.32;;
70663;SDS011;58237;57.996;56.290;2022-12-07T06:01:24;3.08;;;1.42;;
70663;SDS011;58237;57.996;56.290;2022-12-07T06:03:49;6.05;;;3.20;;
70663;SDS011;58237;57.996;56.290;2022-12-07T06:06:15;7.38;;;2.90;;
70663;SDS011;58237;57.996;56.290;2022-12-07T06:08:40;5.18;;;2.25;;
70663;SDS011;58237;57.996;56.290;2022-12-07T06:11:05;7.28;;;3.42;;
70663;SDS011;58237;57.996;56.290;2022-12-07T06:13:31;5.43;;;2.30;;
70663;SDS011;58237;57.996;56.290;2022-12-07T06:15:56;3.67;;;1.58;;
70663;SDS011;58237;57.996;56.290;2022-12-07T06:18:21;6.15;;;2.58;;
70663;SDS011;58237;57.996;56.290;2022-12-07T06:20:47;7.32;;;2.03;;
70663;SDS011;58237;57.996;56.290;2022-12-07T06:23:12;10.15;;;2.40;;
70663;SDS011;58237;57.996;56.290;2022-12-07T06:25:38;7.70;;;2.50;;
70663;SDS011;58237;57.996;56.290;2022-12-07T06:28:03;3.63;;;1.77;;
70663;SDS011;58237;57.996;56.290;2022-12-07T06:30:28;6.00;;;2.55;;
70663;SDS011;58237;57.996;56.290;2022-12-07T06:32:54;5.18;;;2.33;;
70663;SDS011;58237;57.996;56.290;2022-12-07T06:35:19;11.05;;;3.40;;
70663;SDS011;58237;57.996;56.290;2022-12-07T06:37:44;4.95;;;2.40;;
70663;SDS011;58237;57.996;56.290;2022-12-07T06:40:10;6.10;;;2.83;;
70663;SDS011;58237;57.996;56.290;2022-12-07T06:42:35;10.98;;;3.30;;
70663;SDS011;58237;57.996;56.290;2022-12-07T06:45:00;7.13;;;2.78;;
70663;SDS011;58237;57.996;56.290;2022-12-07T06:47:26;8.82;;;3.63;;
70663;SDS011;58237;57.996;56.290;2022-12-07T06:49:51;5.20;;;2.25;;
70663;SDS011;58237;57.996;56.290;2022-12-07T06:52:16;12.63;;;3.40;;
70663;SDS011;58237;57.996;56.290;2022-12-07T06:54:42;12.60;;;3.83;;
70663;SDS011;58237;57.996;56.290;2022-12-07T06:57:07;5.05;;;2.20;;
70663;SDS011;58237;57.996;56.290;2022-12-07T06:59:32;8.32;;;2.75;;
70663;SDS011;58237;57.996;56.290;2022-12-07T07:01:58;9.07;;;3.72;;
70663;SDS011;58237;57.996;56.290;2022-12-07T07:04:23;8.38;;;3.30;;
70663;SDS011;58237;57.996;56.290;2022-12-07T07:06:48;8.20;;;2.90;;
70663;SDS011;58237;57.996;56.290;2022-12-07T07:09:14;8.10;;;2.95;;
70663;SDS011;58237;57.996;56.290;2022-12-07T07:11:40;18.77;;;4.93;;
70663;SDS011;58237;57.996;56.290;2022-12-07T07:14:05;7.25;;;3.33;;
70663;SDS011;58237;57.996;56.290;2022-12-07T07:16:31;7.88;;;3.88;;
70663;SDS011;58237;57.996;56.290;2022-12-07T07:18:56;11.55;;;3.58;;
70663;SDS011;58237;57.996;56.290;2022-12-07T07:21:21;6.40;;;2.65;;
70663;SDS011;58237;57.996;56.290;2022-12-07T07:23:47;12.00;;;4.53;;
70663;SDS011;58237;57.996;56.290;2022-12-07T07:26:12;14.38;;;5.40;;
70663;SDS011;58237;57.996;56.290;2022-12-07T07:28:38;7.05;;;2.63;;
70663;SDS011;58237;57.996;56.290;2022-12-07T07:31:03;12.02;;;3.97;;
70663;SDS011;58237;57.996;56.290;2022-12-07T07:33:28;13.65;;;6.07;;
70663;SDS011;58237;57.996;56.290;2022-12-07T07:35:54;7.90;;;3.75;;
70663;SDS011;58237;57.996;56.290;2022-12-07T07:38:19;10.05;;;3.22;;
70663;SDS011;58237;57.996;56.290;2022-12-07T07:40:44;13.85;;;3.65;;
70663;SDS011;58237;57.996;56.290;2022-12-07T07:43:10;9.55;;;3.13;;
70663;SDS011;58237;57.996;56.290;2022-12-07T07:45:35;13.90;;;4.05;;
70663;SDS011;58237;57.996;56.290;2022-12-07T07:48:00;5.18;;;1.95;;
70663;SDS011;58237;57.996;56.290;2022-12-07T07:50:26;8.98;;;4.22;;
70663;SDS011;58237;57.996;56.290;2022-12-07T07:52:53;12.80;;;4.75;;
70663;SDS011;58237;57.996;56.290;2022-12-07T07:55:18;10.52;;;4.03;;
70663;SDS011;58237;57.996;56.290;2022-12-07T07:57:43;10.20;;;3.67;;
70663;SDS011;58237;57.996;56.290;2022-12-07T08:00:10;7.05;;;3.25;;
70663;SDS011;58237;57.996;56.290;2022-12-07T08:02:36;11.10;;;3.75;;
70663;SDS011;58237;57.996;56.290;2022-12-07T08:05:01;8.55;;;2.80;;
70663;SDS011;58237;57.996;56.290;2022-12-07T08:07:29;6.88;;;2.60;;
70663;SDS011;58237;57.996;56.290;2022-12-07T08:09:54;11.60;;;4.03;;
70663;SDS011;58237;57.996;56.290;2022-12-07T08:12:20;7.63;;;2.45;;
70663;SDS011;58237;57.996;56.290;2022-12-07T08:14:45;11.65;;;2.75;;
70663;SDS011;58237;57.996;56.290;2022-12-07T08:17:10;7.03;;;2.33;;
70663;SDS011;58237;57.996;56.290;2022-12-07T08:19:36;6.85;;;2.10;;
70663;SDS011;58237;57.996;56.290;2022-12-07T08:22:01;6.80;;;3.40;;
70663;SDS011;58237;57.996;56.290;2022-12-07T08:24:27;5.40;;;2.63;;
70663;SDS011;58237;57.996;56.290;2022-12-07T08:26:52;7.50;;;3.20;;
70663;SDS011;58237;57.996;56.290;2022-12-07T08:29:18;10.10;;;3.83;;
70663;SDS011;58237;57.996;56.290;2022-12-07T08:31:43;12.80;;;4.35;;
70663;SDS011;58237;57.996;56.290;2022-12-07T08:34:10;13.45;;;4.15;;
70663;SDS011;58237;57.996;56.290;2022-12-07T08:36:36;14.20;;;4.60;;
70663;SDS011;58237;57.996;56.290;2022-12-07T08:39:01;6.55;;;2.25;;
70663;SDS011;58237;57.996;56.290;2022-12-07T08:41:26;7.65;;;2.67;;
70663;SDS011;58237;57.996;56.290;2022-12-07T08:43:52;10.70;;;4.55;;
70663;SDS011;58237;57.996;56.290;2022-12-07T08:48:50;15.20;;;5.70;;
70663;SDS011;58237;57.996;56.290;2022-12-07T08:51:16;7.22;;;3.17;;
70663;SDS011;58237;57.996;56.290;2022-12-07T08:53:41;8.57;;;3.00;;
70663;SDS011;58237;57.996;56.290;2022-12-07T08:56:07;9.32;;;3.00;;
70663;SDS011;58237;57.996;56.290;2022-12-07T08:58:33;7.88;;;3.85;;
70663;SDS011;58237;57.996;56.290;2022-12-07T09:00:59;10.20;;;5.10;;
70663;SDS011;58237;57.996;56.290;2022-12-07T09:03:24;14.00;;;4.43;;
70663;SDS011;58237;57.996;56.290;2022-12-07T09:05:49;16.45;;;5.90;;
70663;SDS011;58237;57.996;56.290;2022-12-07T09:08:15;10.45;;;3.90;;
70663;SDS011;58237;57.996;56.290;2022-12-07T09:10:40;10.02;;;3.85;;
70663;SDS011;58237;57.996;56.290;2022-12-07T09:13:06;7.80;;;3.17;;
70663;SDS011;58237;57.996;56.290;2022-12-07T09:15:31;10.43;;;4.15;;
70663;SDS011;58237;57.996;56.290;2022-12-07T09:17:56;13.38;;;5.03;;
70663;SDS011;58237;57.996;56.290;2022-12-07T09:20:22;9.77;;;3.22;;
70663;SDS011;58237;57.996;56.290;2022-12-07T09:22:47;10.77;;;4.57;;
70663;SDS011;58237;57.996;56.290;2022-12-07T09:25:13;11.45;;;5.18;;
70663;SDS011;58237;57.996;56.290;2022-12-07T09:27:38;12.48;;;4.15;;
70663;SDS011;58237;57.996;56.290;2022-12-07T09:30:04;9.82;;;4.72;;
70663;SDS011;58237;57.996;56.290;2022-12-07T09:32:29;10.60;;;3.83;;
70663;SDS011;58237;57.996;56.290;2022-12-07T09:34:55;11.68;;;4.35;;
70663;SDS011;58237;57.996;56.290;2022-12-07T09:37:20;9.40;;;3.78;;
70663;SDS011;58237;57.996;56.290;2022-12-07T09:39:46;10.55;;;4.05;;
70663;SDS011;58237;57.996;56.290;2022-12-07T09:42:14;10.95;;;4.63;;
70663;SDS011;58237;57.996;56.290;2022-12-07T09:44:44;14.90;;;5.50;;
70663;SDS011;58237;57.996;56.290;2022-12-07T09:47:09;12.50;;;4.68;;
70663;SDS011;58237;57.996;56.290;2022-12-07T09:49:35;14.73;;;5.55;;
70663;SDS011;58237;57.996;56.290;2022-12-07T09:54:39;12.13;;;4.32;;
70663;SDS011;58237;57.996;56.290;2022-12-07T09:57:07;8.18;;;3.05;;
70663;SDS011;58237;57.996;56.290;2022-12-07T09:59:33;11.13;;;3.55;;
70663;SDS011;58237;57.996;56.290;2022-12-07T10:02:04;11.38;;;4.40;;
70663;SDS011;58237;57.996;56.290;2022-12-07T10:04:42;11.48;;;3.90;;
70663;SDS011;58237;57.996;56.290;2022-12-07T10:07:09;10.73;;;3.55;;
70663;SDS011;58237;57.996;56.290;2022-12-07T10:09:34;6.85;;;3.00;;
70663;SDS011;58237;57.996;56.290;2022-12-07T10:12:01;9.55;;;3.50;;
70663;SDS011;58237;57.996;56.290;2022-12-07T10:14:27;8.18;;;2.72;;
70663;SDS011;58237;57.996;56.290;2022-12-07T10:16:53;8.80;;;2.85;;
70663;SDS011;58237;57.996;56.290;2022-12-07T10:24:51;11.05;;;3.65;;
70663;SDS011;58237;57.996;56.290;2022-12-07T10:29:48;10.05;;;3.33;;
70663;SDS011;58237;57.996;56.290;2022-12-07T10:34:39;6.53;;;2.53;;
70663;SDS011;58237;57.996;56.290;2022-12-07T10:37:15;7.53;;;2.92;;
70663;SDS011;58237;57.996;56.290;2022-12-07T10:42:25;9.90;;;3.38;;
70663;SDS011;58237;57.996;56.290;2022-12-07T10:47:36;8.23;;;3.55;;
70663;SDS011;58237;57.996;56.290;2022-12-07T10:57:32;9.13;;;2.70;;
70663;SDS011;58237;57.996;56.290;2022-12-07T11:05:05;6.78;;;2.72;;
70663;SDS011;58237;57.996;56.290;2022-12-07T11:17:35;14.32;;;4.60;;
70663;SDS011;58237;57.996;56.290;2022-12-07T11:27:43;9.80;;;3.08;;
70663;SDS011;58237;57.996;56.290;2022-12-07T11:30:22;12.90;;;3.78;;
70663;SDS011;58237;57.996;56.290;2022-12-07T11:32:53;9.18;;;3.90;;
70663;SDS011;58237;57.996;56.290;2022-12-07T11:35:36;8.73;;;3.30;;
70663;SDS011;58237;57.996;56.290;2022-12-07T11:38:08;15.07;;;5.53;;
70663;SDS011;58237;57.996;56.290;2022-12-07T11:40:35;8.40;;;2.95;;
70663;SDS011;58237;57.996;56.290;2022-12-07T11:45:30;10.93;;;4.60;;
70663;SDS011;58237;57.996;56.290;2022-12-07T11:48:14;13.05;;;5.43;;
70663;SDS011;58237;57.996;56.290;2022-12-07T11:50:43;14.93;;;5.07;;
70663;SDS011;58237;57.996;56.290;2022-12-07T11:53:10;11.95;;;4.72;;
70663;SDS011;58237;57.996;56.290;2022-12-07T11:58:07;13.23;;;5.32;;
70663;SDS011;58237;57.996;56.290;2022-12-07T12:00:38;9.70;;;3.63;;
70663;SDS011;58237;57.996;56.290;2022-12-07T12:03:11;13.05;;;4.28;;
70663;SDS011;58237;57.996;56.290;2022-12-07T12:05:38;14.63;;;5.78;;
70663;SDS011;58237;57.996;56.290;2022-12-07T12:08:21;14.10;;;5.10;;
70663;SDS011;58237;57.996;56.290;2022-12-07T12:16:20;12.45;;;4.40;;
70663;SDS011;58237;57.996;56.290;2022-12-07T12:21:31;16.77;;;5.43;;
70663;SDS011;58237;57.996;56.290;2022-12-07T12:24:00;17.10;;;6.07;;
70663;SDS011;58237;57.996;56.290;2022-12-07T12:26:28;14.68;;;4.88;;
70663;SDS011;58237;57.996;56.290;2022-12-07T12:28:58;12.45;;;4.63;;
70663;SDS011;58237;57.996;56.290;2022-12-07T12:34:00;8.88;;;3.22;;
70663;SDS011;58237;57.996;56.290;2022-12-07T12:44:01;9.77;;;2.78;;
70663;SDS011;58237;57.996;56.290;2022-12-07T12:51:57;5.03;;;2.63;;
70663;SDS011;58237;57.996;56.290;2022-12-07T12:54:26;9.00;;;3.63;;
70663;SDS011;58237;57.996;56.290;2022-12-07T12:56:59;14.55;;;4.75;;
70663;SDS011;58237;57.996;56.290;2022-12-07T12:59:29;8.63;;;2.83;;
70663;SDS011;58237;57.996;56.290;2022-12-07T13:04:47;15.10;;;4.28;;
70663;SDS011;58237;57.996;56.290;2022-12-07T13:09:59;12.30;;;5.32;;
70663;SDS011;58237;57.996;56.290;2022-12-07T13:12:24;8.02;;;3.58;;
70663;SDS011;58237;57.996;56.290;2022-12-07T13:19:56;14.27;;;4.78;;
70663;SDS011;58237;57.996;56.290;2022-12-07T13:22:40;16.30;;;3.80;;
70663;SDS011;58237;57.996;56.290;2022-12-07T13:25:09;10.60;;;3.38;;
70663;SDS011;58237;57.996;56.290;2022-12-07T13:27:39;7.25;;;2.85;;
70663;SDS011;58237;57.996;56.290;2022-12-07T13:30:18;16.45;;;4.70;;
70663;SDS011;58237;57.996;56.290;2022-12-07T13:32:50;24.25;;;8.07;;
70663;SDS011;58237;57.996;56.290;2022-12-07T13:37:54;10.35;;;3.78;;
70663;SDS011;58237;57.996;56.290;2022-12-07T13:40:20;13.80;;;3.67;;
70663;SDS011;58237;57.996;56.290;2022-12-07T13:42:46;12.10;;;4.97;;
70663;SDS011;58237;57.996;56.290;2022-12-07T13:45:20;23.23;;;7.15;;
70663;SDS011;58237;57.996;56.290;2022-12-07T13:47:48;21.10;;;6.60;;
70663;SDS011;58237;57.996;56.290;2022-12-07T13:50:25;23.75;;;7.95;;
70663;SDS011;58237;57.996;56.290;2022-12-07T13:52:54;19.73;;;7.60;;
70663;SDS011;58237;57.996;56.290;2022-12-07T13:55:19;11.68;;;5.82;;
70663;SDS011;58237;57.996;56.290;2022-12-07T13:57:47;15.15;;;5.13;;
70663;SDS011;58237;57.996;56.290;2022-12-07T14:00:15;9.40;;;4.32;;
70663;SDS011;58237;57.996;56.290;2022-12-07T14:03:00;8.20;;;3.92;;
70663;SDS011;58237;57.996;56.290;2022-12-07T14:08:02;22.35;;;6.95;;
70663;SDS011;58237;57.996;56.290;2022-12-07T14:10:29;11.10;;;3.92;;
70663;SDS011;58237;57.996;56.290;2022-12-07T14:12:55;9.30;;;3.55;;
70663;SDS011;58237;57.996;56.290;2022-12-07T14:15:22;15.32;;;4.50;;
70663;SDS011;58237;57.996;56.290;2022-12-07T14:17:52;10.90;;;3.50;;
70663;SDS011;58237;57.996;56.290;2022-12-07T14:22:58;12.55;;;5.00;;
70663;SDS011;58237;57.996;56.290;2022-12-07T14:25:27;9.80;;;3.40;;
70663;SDS011;58237;57.996;56.290;2022-12-07T14:30:18;12.80;;;4.80;;
70663;SDS011;58237;57.996;56.290;2022-12-07T14:32:44;9.85;;;3.70;;
70663;SDS011;58237;57.996;56.290;2022-12-07T14:35:11;15.23;;;4.25;;
70663;SDS011;58237;57.996;56.290;2022-12-07T14:37:37;14.75;;;3.85;;
70663;SDS011;58237;57.996;56.290;2022-12-07T14:40:03;11.95;;;3.90;;
70663;SDS011;58237;57.996;56.290;2022-12-07T14:42:29;10.65;;;4.00;;
70663;SDS011;58237;57.996;56.290;2022-12-07T14:44:55;7.75;;;3.53;;
70663;SDS011;58237;57.996;56.290;2022-12-07T14:47:21;12.07;;;5.20;;
70663;SDS011;58237;57.996;56.290;2022-12-07T14:49:46;13.27;;;4.53;;
70663;SDS011;58237;57.996;56.290;2022-12-07T14:52:13;20.50;;;6.53;;
70663;SDS011;58237;57.996;56.290;2022-12-07T14:54:40;22.90;;;5.97;;
70663;SDS011;58237;57.996;56.290;2022-12-07T14:57:07;10.55;;;3.83;;
70663;SDS011;58237;57.996;56.290;2022-12-07T14:59:33;15.32;;;5.78;;
70663;SDS011;58237;57.996;56.290;2022-12-07T15:01:58;5.40;;;2.42;;
70663;SDS011;58237;57.996;56.290;2022-12-07T15:04:24;13.80;;;4.03;;
70663;SDS011;58237;57.996;56.290;2022-12-07T15:06:56;14.18;;;4.90;;
70663;SDS011;58237;57.996;56.290;2022-12-07T15:09:22;14.95;;;6.05;;
70663;SDS011;58237;57.996;56.290;2022-12-07T15:11:47;17.20;;;5.30;;
70663;SDS011;58237;57.996;56.290;2022-12-07T15:14:12;18.02;;;5.68;;
70663;SDS011;58237;57.996;56.290;2022-12-07T15:16:38;16.60;;;5.15;;
70663;SDS011;58237;57.996;56.290;2022-12-07T15:19:04;11.25;;;3.80;;
70663;SDS011;58237;57.996;56.290;2022-12-07T15:21:29;17.70;;;5.53;;
70663;SDS011;58237;57.996;56.290;2022-12-07T15:23:55;14.30;;;4.70;;
70663;SDS011;58237;57.996;56.290;2022-12-07T15:26:20;17.50;;;6.75;;
70663;SDS011;58237;57.996;56.290;2022-12-07T15:28:46;13.00;;;5.43;;
70663;SDS011;58237;57.996;56.290;2022-12-07T15:31:11;18.02;;;5.70;;
70663;SDS011;58237;57.996;56.290;2022-12-07T15:33:37;21.40;;;7.72;;
70663;SDS011;58237;57.996;56.290;2022-12-07T15:36:02;13.70;;;7.07;;
70663;SDS011;58237;57.996;56.290;2022-12-07T15:38:28;18.58;;;5.43;;
70663;SDS011;58237;57.996;56.290;2022-12-07T15:40:53;16.05;;;5.20;;
70663;SDS011;58237;57.996;56.290;2022-12-07T15:43:18;22.70;;;3.85;;
70663;SDS011;58237;57.996;56.290;2022-12-07T15:45:44;18.27;;;6.60;;
70663;SDS011;58237;57.996;56.290;2022-12-07T15:48:14;21.02;;;7.00;;
70663;SDS011;58237;57.996;56.290;2022-12-07T15:50:39;16.48;;;5.72;;
70663;SDS011;58237;57.996;56.290;2022-12-07T15:53:05;13.98;;;5.00;;
70663;SDS011;58237;57.996;56.290;2022-12-07T15:55:30;14.95;;;5.25;;
70663;SDS011;58237;57.996;56.290;2022-12-07T15:57:56;23.30;;;8.05;;
70663;SDS011;58237;57.996;56.290;2022-12-07T16:00:21;20.33;;;7.68;;
70663;SDS011;58237;57.996;56.290;2022-12-07T16:02:46;11.60;;;3.92;;
70663;SDS011;58237;57.996;56.290;2022-12-07T16:05:12;27.77;;;10.45;;
70663;SDS011;58237;57.996;56.290;2022-12-07T16:07:37;16.63;;;7.57;;
70663;SDS011;58237;57.996;56.290;2022-12-07T16:10:03;18.98;;;5.10;;
70663;SDS011;58237;57.996;56.290;2022-12-07T16:12:29;17.10;;;5.95;;
70663;SDS011;58237;57.996;56.290;2022-12-07T16:14:54;35.58;;;8.80;;
70663;SDS011;58237;57.996;56.290;2022-12-07T16:17:19;21.95;;;7.72;;
70663;SDS011;58237;57.996;56.290;2022-12-07T16:19:45;16.35;;;4.95;;
70663;SDS011;58237;57.996;56.290;2022-12-07T16:22:10;14.57;;;6.20;;
70663;SDS011;58237;57.996;56.290;2022-12-07T16:24:36;20.60;;;6.15;;
70663;SDS011;58237;57.996;56.290;2022-12-07T16:27:01;26.08;;;7.50;;
70663;SDS011;58237;57.996;56.290;2022-12-07T16:29:26;16.67;;;3.88;;
70663;SDS011;58237;57.996;56.290;2022-12-07T16:31:52;11.30;;;5.03;;
70663;SDS011;58237;57.996;56.290;2022-12-07T16:34:18;16.73;;;5.82;;
70663;SDS011;58237;57.996;56.290;2022-12-07T16:36:43;20.35;;;7.63;;
70663;SDS011;58237;57.996;56.290;2022-12-07T16:39:09;18.75;;;6.30;;
70663;SDS011;58237;57.996;56.290;2022-12-07T16:41:34;11.52;;;3.60;;
70663;SDS011;58237;57.996;56.290;2022-12-07T16:44:04;19.27;;;5.65;;